Time;durP1;ratioP1;P1;durP2;ratioP2;P2;SDS_P1;SDS_P2;PMS_P1;PMS_P2;Temp;Humidity;BMP_temperature;BMP_pressure;BME280_temperature;BME280_humidity;BME280_pressure;Samples;Min_cycle;Max_cycle;Signal;HPM_P1;HPM_P2
2022/05/16 03:00:59;;;;;;;0.80;0.80;;;26.30;47.00;;;;;;5655416;23;45896;-59
2022/05/16 03:03:25;;;;;;;0.70;0.70;;;26.30;47.00;;;;;;4930104;28;45610;-59
2022/05/16 03:05:51;;;;;;;0.82;0.80;;;26.30;47.00;;;;;;4948098;28;45334;-59
2022/05/16 03:08:16;;;;;;;0.95;0.80;;;26.30;47.00;;;;;;4950305;28;45177;-60
2022/05/16 03:10:42;;;;;;;0.88;0.82;;;26.30;47.00;;;;;;4950764;28;46105;-60
2022/05/16 03:13:07;;;;;;;0.70;0.52;;;26.30;47.00;;;;;;4953247;28;45230;-60
2022/05/16 03:15:33;;;;;;;0.90;0.77;;;26.30;47.00;;;;;;4957039;28;45231;-59
2022/05/16 03:17:58;;;;;;;0.95;0.63;;;26.30;47.00;;;;;;4953798;28;45548;-59
2022/05/16 03:20:24;;;;;;;0.50;0.50;;;26.30;47.00;;;;;;4948129;28;46127;-57
2022/05/16 03:22:50;;;;;;;0.75;0.75;;;26.30;47.00;;;;;;4956594;28;45560;-59
2022/05/16 03:25:15;;;;;;;0.70;0.70;;;26.30;47.10;;;;;;4953003;28;45406;-58
2022/05/16 03:27:41;;;;;;;0.80;0.80;;;26.30;47.10;;;;;;4950327;28;45543;-60
2022/05/16 03:30:08;;;;;;;0.60;0.60;;;26.30;47.10;;;;;;4954425;28;45347;-60
2022/05/16 03:32:34;;;;;;;1.05;0.70;;;26.30;47.10;;;;;;4935631;28;45366;-59
2022/05/16 03:34:59;;;;;;;0.70;0.55;;;26.20;47.00;;;;;;4942912;28;45339;-58
2022/05/16 03:37:25;;;;;;;0.80;0.80;;;26.30;47.10;;;;;;4951205;28;45117;-58
2022/05/16 03:42:35;;;;;;;0.77;0.77;;;26.30;47.10;;;;;;4950576;28;45458;-57
2022/05/16 03:45:00;;;;;;;0.70;0.70;;;26.20;47.00;;;;;;4948414;28;44598;-58
2022/05/16 03:47:26;;;;;;;0.60;0.60;;;26.20;47.00;;;;;;4945885;28;44885;-60
2022/05/16 03:49:52;;;;;;;0.50;0.50;;;26.20;47.00;;;;;;4956449;28;45716;-59
2022/05/16 03:52:18;;;;;;;1.42;0.60;;;26.20;47.10;;;;;;4933650;28;45649;-58
2022/05/16 03:54:43;;;;;;;0.60;0.60;;;26.20;47.10;;;;;;4950121;28;44947;-59
2022/05/16 03:57:09;;;;;;;1.15;0.70;;;26.20;47.00;;;;;;4949345;28;45418;-60
2022/05/16 03:59:35;;;;;;;0.95;0.88;;;26.20;47.10;;;;;;4947169;28;45477;-57
2022/05/16 04:02:00;;;;;;;0.60;0.60;;;26.20;47.10;;;;;;4945861;28;45211;-60
2022/05/16 04:04:26;;;;;;;0.82;0.57;;;26.20;47.10;;;;;;4949187;28;45362;-58
2022/05/16 04:06:52;;;;;;;0.57;0.57;;;26.20;47.10;;;;;;4950883;28;45571;-56
2022/05/16 04:09:17;;;;;;;0.50;0.50;;;26.20;47.10;;;;;;4947835;28;45822;-57
2022/05/16 04:11:43;;;;;;;0.88;0.70;;;26.20;47.10;;;;;;4947978;28;45152;-58
2022/05/16 04:14:09;;;;;;;0.70;0.70;;;26.20;47.10;;;;;;4947746;28;45600;-60
2022/05/16 04:16:36;;;;;;;0.77;0.70;;;26.20;47.10;;;;;;4951145;28;45460;-59
2022/05/16 04:19:01;;;;;;;0.90;0.90;;;26.20;47.00;;;;;;4947664;28;46089;-59
2022/05/16 04:21:27;;;;;;;0.70;0.70;;;26.20;47.10;;;;;;4953101;28;45520;-58
2022/05/16 04:23:52;;;;;;;0.85;0.60;;;26.20;47.70;;;;;;4946272;28;45536;-59
2022/05/16 04:26:18;;;;;;;0.93;0.75;;;26.20;47.10;;;;;;4948808;28;45725;-57
2022/05/16 04:28:44;;;;;;;0.50;0.50;;;26.20;47.10;;;;;;4941985;28;45932;-59
2022/05/16 04:31:09;;;;;;;0.50;0.50;;;26.20;47.10;;;;;;4943649;28;45339;-58
2022/05/16 04:33:35;;;;;;;2.38;0.85;;;26.20;47.10;;;;;;4946681;28;45354;-60
2022/05/16 04:36:01;;;;;;;0.60;0.60;;;26.20;47.10;;;;;;4951725;28;45334;-59
2022/05/16 04:38:26;;;;;;;1.33;0.75;;;26.20;47.10;;;;;;4949557;28;46131;-59
2022/05/16 04:43:36;;;;;;;0.77;0.70;;;26.10;47.10;;;;;;4949793;28;45445;-58
2022/05/16 04:46:06;;;;;;;1.02;0.70;;;26.20;47.10;;;;;;4949373;28;45909;-59
2022/05/16 04:48:32;;;;;;;1.00;0.80;;;26.20;47.20;;;;;;4945816;28;46034;-57
2022/05/16 04:50:57;;;;;;;0.77;0.65;;;26.20;47.20;;;;;;4948756;28;45279;-57
2022/05/16 04:53:24;;;;;;;1.00;0.90;;;26.10;47.10;;;;;;4947756;28;45648;-60
2022/05/16 04:55:49;;;;;;;0.80;0.80;;;26.10;47.10;;;;;;4948253;28;46194;-58
2022/05/16 04:58:15;;;;;;;0.93;0.80;;;26.10;47.10;;;;;;4947993;28;46466;-59
2022/05/16 05:00:41;;;;;;;1.25;0.80;;;26.10;47.20;;;;;;4948050;28;45216;-59
2022/05/16 05:03:06;;;;;;;0.90;0.77;;;26.10;47.20;;;;;;4942818;28;45369;-58
2022/05/16 05:05:32;;;;;;;1.30;0.90;;;26.10;47.20;;;;;;4948662;28;45266;-59
2022/05/16 05:07:58;;;;;;;1.00;0.80;;;26.10;47.10;;;;;;4950983;28;46150;-57
2022/05/16 05:15:58;;;;;;;0.73;0.73;;;26.10;47.10;;;;;;4948861;28;45237;-59
2022/05/16 05:18:24;;;;;;;0.70;0.70;;;26.10;47.10;;;;;;4933751;28;46215;-60
2022/05/16 05:20:50;;;;;;;0.95;0.90;;;26.10;47.10;;;;;;4947980;28;45720;-58
2022/05/16 05:23:16;;;;;;;0.95;0.80;;;26.10;47.20;;;;;;4930416;28;45509;-57
2022/05/16 05:25:42;;;;;;;1.05;0.80;;;26.10;47.20;;;;;;4948621;28;45907;-59
2022/05/16 05:28:08;;;;;;;1.45;1.00;;;26.10;47.10;;;;;;4950178;28;45991;-58
2022/05/16 05:30:33;;;;;;;1.23;0.90;;;26.10;47.20;;;;;;4948015;28;45503;-59
2022/05/16 05:32:59;;;;;;;1.80;0.95;;;26.10;47.10;;;;;;4950096;28;44971;-59
2022/05/16 05:35:26;;;;;;;2.65;1.25;;;26.10;47.10;;;;;;4946273;28;45813;-59
2022/05/16 05:37:55;;;;;;;1.10;1.00;;;26.10;47.10;;;;;;4948113;28;45705;-58
2022/05/16 05:40:20;;;;;;;1.50;0.90;;;26.10;47.00;;;;;;4950137;28;45542;-59
2022/05/16 05:42:46;;;;;;;0.68;0.63;;;26.10;47.10;;;;;;4933501;28;45375;-59
2022/05/16 05:45:11;;;;;;;1.00;0.80;;;26.10;47.10;;;;;;4948070;28;45518;-57
2022/05/16 05:47:37;;;;;;;1.75;0.85;;;26.10;47.10;;;;;;4949190;28;45556;-58
2022/05/16 05:50:05;;;;;;;0.85;0.73;;;26.10;47.10;;;;;;4948880;28;45280;-57
2022/05/16 05:52:32;;;;;;;0.80;0.80;;;26.10;47.10;;;;;;4949367;28;45347;-59
2022/05/16 05:54:57;;;;;;;0.80;0.80;;;26.10;47.10;;;;;;4949516;28;45620;-59
2022/05/16 05:57:25;;;;;;;1.75;0.90;;;26.10;47.10;;;;;;4949206;28;46264;-62
2022/05/16 05:59:53;;;;;;;1.95;1.40;;;26.10;47.00;;;;;;4947777;28;44871;-61
2022/05/16 06:02:19;;;;;;;4.18;2.20;;;26.20;46.20;;;;;;4933422;28;44718;-62
2022/05/16 06:04:45;;;;;;;3.63;2.40;;;26.10;45.60;;;;;;4946538;28;45245;-63
2022/05/16 06:07:11;;;;;;;6.10;2.85;;;26.10;45.30;;;;;;4930594;28;46039;-64
2022/05/16 06:09:36;;;;;;;6.93;3.55;;;26.00;44.80;;;;;;4952845;28;46080;-62
2022/05/16 06:12:05;;;;;;;6.43;3.05;;;25.90;44.30;;;;;;4955885;28;45045;-62
2022/05/16 06:14:31;;;;;;;8.10;3.92;;;25.80;44.00;;;;;;4953149;28;45216;-63
2022/05/16 06:16:56;;;;;;;8.45;3.75;;;25.80;44.00;;;;;;4932875;28;46088;-61
2022/05/16 06:19:22;;;;;;;8.43;3.40;;;25.80;44.00;;;;;;4949212;28;45352;-60
2022/05/16 06:21:49;;;;;;;7.43;2.70;;;25.80;43.90;;;;;;4950586;28;44880;-60
2022/05/16 06:26:59;;;;;;;4.43;2.75;;;25.80;43.90;;;;;;4952158;28;45621;-61
2022/05/16 06:29:25;;;;;;;6.15;2.97;;;25.80;43.90;;;;;;4937544;28;45798;-62
2022/05/16 06:31:52;;;;;;;5.82;2.90;;;25.80;43.90;;;;;;4940697;28;44710;-60
2022/05/16 06:34:17;;;;;;;5.60;2.80;;;25.90;44.00;;;;;;4952540;28;45383;-62
2022/05/16 06:36:43;;;;;;;6.43;2.65;;;25.90;44.00;;;;;;4932909;28;45284;-62
2022/05/16 06:39:08;;;;;;;4.43;2.25;;;25.90;44.10;;;;;;4953552;28;45544;-62
2022/05/16 06:41:34;;;;;;;3.15;2.30;;;26.00;44.20;;;;;;4933996;28;45126;-62
2022/05/16 06:44:01;;;;;;;9.25;2.40;;;26.00;44.30;;;;;;4951165;28;44791;-62
2022/05/16 06:46:27;;;;;;;3.88;2.28;;;26.00;44.50;;;;;;4949503;28;45488;-61
2022/05/16 06:48:53;;;;;;;6.43;2.45;;;26.00;44.30;;;;;;4938573;28;44641;-62
2022/05/16 06:51:18;;;;;;;6.07;2.67;;;26.10;44.30;;;;;;4928078;28;45418;-62
2022/05/16 06:53:44;;;;;;;6.07;2.42;;;26.10;44.30;;;;;;4949821;28;45433;-62
2022/05/16 06:56:09;;;;;;;4.25;2.50;;;26.10;44.40;;;;;;4947174;28;46782;-63
2022/05/16 06:58:35;;;;;;;4.10;2.38;;;26.10;44.40;;;;;;4930639;28;45414;-63
2022/05/16 07:01:01;;;;;;;4.28;2.65;;;26.10;44.50;;;;;;4933136;28;45451;-58
2022/05/16 07:03:26;;;;;;;2.38;1.77;;;26.10;44.40;;;;;;4937223;28;45640;-59
2022/05/16 07:05:52;;;;;;;3.65;1.70;;;26.10;44.50;;;;;;4955676;28;45221;-60
2022/05/16 07:08:19;;;;;;;3.72;2.33;;;26.10;44.40;;;;;;4955381;28;45433;-60
2022/05/16 07:10:46;;;;;;;4.75;2.13;;;26.20;44.50;;;;;;4957177;28;45516;-60
2022/05/16 07:13:12;;;;;;;3.13;2.03;;;26.20;44.50;;;;;;4949296;28;45653;-61
2022/05/16 07:15:38;;;;;;;4.32;2.03;;;26.20;44.50;;;;;;4949812;28;45427;-61
2022/05/16 07:18:04;;;;;;;2.20;1.67;;;26.30;44.50;;;;;;4955423;28;44706;-61
2022/05/16 07:20:29;;;;;;;2.63;2.00;;;26.30;44.40;;;;;;4938082;28;45044;-59
2022/05/16 07:22:58;;;;;;;3.58;2.13;;;26.30;44.40;;;;;;4953851;28;45282;-60
2022/05/16 07:25:25;;;;;;;3.70;2.35;;;26.40;44.40;;;;;;4954904;28;46001;-59
2022/05/16 07:27:56;;;;;;;5.40;2.20;;;26.40;44.40;;;;;;4932234;28;45348;-60
2022/05/16 07:30:35;;;;;;;4.60;2.30;;;26.40;44.40;;;;;;4934091;28;44974;-59
2022/05/16 07:33:00;;;;;;;5.88;2.10;;;26.40;44.30;;;;;;4950992;28;44746;-61
2022/05/16 07:35:29;;;;;;;3.25;1.95;;;26.50;44.40;;;;;;4931804;28;46402;-60
2022/05/16 07:37:55;;;;;;;3.45;1.77;;;26.50;44.40;;;;;;4952335;28;45071;-60
2022/05/16 07:40:32;;;;;;;5.80;2.13;;;26.50;44.40;;;;;;4932840;28;46005;-59
2022/05/16 07:42:57;;;;;;;2.80;1.60;;;26.50;44.30;;;;;;4937816;28;45511;-60
2022/05/16 07:45:23;;;;;;;4.80;2.15;;;26.50;44.30;;;;;;4953893;28;46524;-62
2022/05/16 07:47:48;;;;;;;3.40;2.05;;;26.60;44.40;;;;;;4947907;28;45695;-65
2022/05/16 07:50:14;;;;;;;3.03;1.90;;;26.60;44.40;;;;;;4955173;28;45510;-61
2022/05/16 07:52:47;;;;;;;4.30;2.00;;;26.60;44.40;;;;;;4937049;28;45490;-62
2022/05/16 07:55:13;;;;;;;4.25;2.30;;;26.60;44.40;;;;;;4953211;28;46148;-65
2022/05/16 07:57:38;;;;;;;4.07;1.90;;;26.70;44.40;;;;;;4952391;28;45252;-61
2022/05/16 08:00:04;;;;;;;4.40;2.25;;;26.70;44.50;;;;;;4950786;28;45565;-63
2022/05/16 08:02:30;;;;;;;7.50;2.28;;;26.70;44.40;;;;;;4936273;28;45243;-61
2022/05/16 08:04:56;;;;;;;4.18;1.90;;;26.70;44.40;;;;;;4951624;28;45206;-62
2022/05/16 08:07:21;;;;;;;3.47;1.92;;;26.80;44.50;;;;;;4953632;28;44889;-62
2022/05/16 08:12:33;;;;;;;1.73;1.63;;;26.80;44.50;;;;;;4951868;28;44708;-62
2022/05/16 08:15:00;;;;;;;2.97;1.63;;;26.80;44.50;;;;;;4938950;28;46014;-61
2022/05/16 08:17:26;;;;;;;2.38;1.73;;;26.80;44.50;;;;;;4939985;28;45446;-62
2022/05/16 08:19:51;;;;;;;2.78;1.92;;;26.80;44.50;;;;;;4955396;28;45760;-63
2022/05/16 08:22:17;;;;;;;8.15;2.20;;;26.80;44.50;;;;;;4958108;28;45137;-63
2022/05/16 08:24:44;;;;;;;2.80;1.70;;;26.90;44.60;;;;;;4936764;28;45189;-62
2022/05/16 08:27:09;;;;;;;2.65;1.58;;;26.90;44.50;;;;;;4941262;28;45249;-61
2022/05/16 08:29:35;;;;;;;1.95;1.48;;;26.90;44.60;;;;;;4924915;28;44963;-63
2022/05/16 08:32:03;;;;;;;3.08;1.92;;;26.90;44.60;;;;;;4952107;28;44944;-63
2022/05/16 08:34:29;;;;;;;2.92;2.10;;;26.90;44.60;;;;;;4939170;28;46105;-62
2022/05/16 08:39:56;;;;;;;2.50;1.73;;;26.90;44.50;;;;;;4926186;28;44709;-62
2022/05/16 08:42:50;;;;;;;3.30;1.90;;;27.00;44.60;;;;;;4954247;28;45036;-62
2022/05/16 08:45:17;;;;;;;3.90;2.00;;;27.00;44.50;;;;;;4953316;28;45231;-62
2022/05/16 08:47:54;;;;;;;2.53;1.80;;;27.00;44.50;;;;;;4937508;28;45071;-64
2022/05/16 08:50:37;;;;;;;2.70;1.80;;;27.00;44.40;;;;;;4941375;28;44642;-62
2022/05/16 08:53:11;;;;;;;3.55;1.70;;;27.00;44.50;;;;;;4937620;28;45148;-62
2022/05/16 08:55:41;;;;;;;4.55;1.70;;;27.00;44.50;;;;;;4930944;28;47051;-62
2022/05/16 08:58:11;;;;;;;2.60;1.77;;;27.10;44.50;;;;;;4955193;28;45557;-61
2022/05/16 09:00:47;;;;;;;3.08;1.45;;;27.10;44.40;;;;;;4952710;28;45743;-62
2022/05/16 09:03:17;;;;;;;2.90;2.03;;;27.10;44.40;;;;;;4938381;28;45593;-61
2022/05/16 09:05:49;;;;;;;3.20;1.52;;;27.10;44.50;;;;;;4937209;28;45264;-64
2022/05/16 09:08:31;;;;;;;2.85;1.67;;;27.10;44.40;;;;;;4940287;28;45679;-65
2022/05/16 09:11:01;;;;;;;1.67;1.58;;;27.10;44.50;;;;;;4960328;28;45434;-63
2022/05/16 09:13:42;;;;;;;5.97;1.90;;;27.10;44.40;;;;;;4922134;28;44802;-63
2022/05/16 09:16:26;;;;;;;2.53;1.58;;;27.20;44.50;;;;;;4939141;28;46307;-64
2022/05/16 09:19:01;;;;;;;3.40;1.70;;;27.20;44.50;;;;;;4955780;28;45719;-65
2022/05/16 09:21:57;;;;;;;3.25;1.73;;;27.10;44.40;;;;;;4938198;28;45539;-64
2022/05/16 09:24:28;;;;;;;3.13;1.80;;;27.10;44.40;;;;;;4956193;28;45617;-63
2022/05/16 09:27:07;;;;;;;4.82;1.70;;;27.20;44.60;;;;;;4940983;28;46328;-62
2022/05/16 09:29:39;;;;;;;3.13;1.90;;;27.20;44.60;;;;;;4951688;28;45343;-65
2022/05/16 09:32:18;;;;;;;3.50;1.60;;;27.20;44.60;;;;;;4954584;28;45394;-62
2022/05/16 09:34:44;;;;;;;2.95;1.48;;;27.20;44.60;;;;;;4948113;28;44990;-64
2022/05/16 09:37:10;;;;;;;2.63;1.70;;;27.20;44.70;;;;;;4938861;28;46175;-62
2022/05/16 09:39:36;;;;;;;2.53;1.63;;;27.20;44.70;;;;;;4955989;28;46388;-62
2022/05/16 09:42:03;;;;;;;3.33;1.60;;;27.20;44.70;;;;;;4954543;28;44930;-61
2022/05/16 09:44:43;;;;;;;3.38;1.85;;;27.10;44.70;;;;;;4955038;28;44768;-61
2022/05/16 09:47:34;;;;;;;2.95;1.60;;;27.20;44.70;;;;;;4952243;28;46025;-63
2022/05/16 09:50:02;;;;;;;3.20;1.85;;;27.20;44.70;;;;;;4953043;28;45340;-62
2022/05/16 09:52:31;;;;;;;4.57;1.88;;;27.20;44.70;;;;;;4955590;28;45545;-62
2022/05/16 09:55:10;;;;;;;5.10;1.73;;;27.20;44.70;;;;;;4949100;28;45512;-62
2022/05/16 09:57:50;;;;;;;1.95;1.73;;;27.20;44.70;;;;;;4938205;28;46127;-63
2022/05/16 10:00:21;;;;;;;2.65;1.70;;;27.30;44.80;;;;;;4952987;28;45110;-62
2022/05/16 10:02:54;;;;;;;2.35;1.60;;;27.20;44.80;;;;;;4937366;28;44869;-62
2022/05/16 10:05:20;;;;;;;2.95;1.83;;;27.30;44.80;;;;;;4936189;28;45268;-61
2022/05/16 10:07:51;;;;;;;1.80;1.60;;;27.30;44.80;;;;;;4956062;28;45065;-61
2022/05/16 10:10:21;;;;;;;5.47;1.83;;;27.30;44.80;;;;;;4937764;28;45473;-61
2022/05/16 10:12:47;;;;;;;2.53;1.75;;;27.30;44.80;;;;;;4919086;28;44997;-62
2022/05/16 10:15:13;;;;;;;2.22;1.50;;;27.30;44.80;;;;;;4922656;28;45377;-62
2022/05/16 10:17:40;;;;;;;1.88;1.35;;;27.30;44.80;;;;;;4936890;28;44852;-62
2022/05/16 10:20:10;;;;;;;2.83;1.80;;;27.30;44.70;;;;;;4936190;28;45379;-63
2022/05/16 10:22:35;;;;;;;2.55;1.50;;;27.40;44.80;;;;;;4937475;28;44809;-65
2022/05/16 10:25:15;;;;;;;2.45;1.63;;;27.30;44.70;;;;;;4939403;28;46207;-63
2022/05/16 10:27:42;;;;;;;4.78;1.55;;;27.40;44.80;;;;;;4915518;28;47111;-64
2022/05/16 10:30:20;;;;;;;2.45;1.60;;;27.40;44.80;;;;;;4935684;28;45700;-63
2022/05/16 10:35:34;;;;;;;3.50;1.67;;;27.40;44.80;;;;;;4950983;28;45569;-64
2022/05/16 10:38:03;;;;;;;1.73;1.30;;;27.40;44.70;;;;;;4948464;28;46196;-65
2022/05/16 10:40:34;;;;;;;2.38;1.60;;;27.40;44.80;;;;;;4930712;28;44642;-63
2022/05/16 10:43:29;;;;;;;1.73;1.45;;;27.40;44.70;;;;;;4936614;28;45410;-63
2022/05/16 10:46:02;;;;;;;2.50;1.60;;;27.40;44.70;;;;;;4950184;28;45637;-63
2022/05/16 10:48:33;;;;;;;2.22;1.60;;;27.40;44.70;;;;;;4935673;28;46937;-63
2022/05/16 10:51:09;;;;;;;2.33;1.70;;;27.40;44.80;;;;;;4949251;28;44987;-63
2022/05/16 10:53:48;;;;;;;2.78;1.90;;;27.40;44.70;;;;;;4938884;28;44851;-63
2022/05/16 10:56:37;;;;;;;2.00;1.73;;;27.40;44.70;;;;;;4935169;28;45534;-64
2022/05/16 10:59:10;;;;;;;2.20;1.67;;;27.40;44.70;;;;;;4933320;28;45583;-63
2022/05/16 11:01:42;;;;;;;2.00;1.55;;;27.40;44.70;;;;;;4930122;28;45509;-63
2022/05/16 11:04:29;;;;;;;3.15;1.75;;;27.40;44.80;;;;;;4952360;28;45642;-63
2022/05/16 11:07:17;;;;;;;2.45;1.70;;;27.40;44.80;;;;;;4952274;28;45381;-59
2022/05/16 11:09:58;;;;;;;2.00;1.60;;;27.40;44.70;;;;;;4947379;28;45145;-62
2022/05/16 11:12:40;;;;;;;2.25;1.60;;;27.40;44.70;;;;;;4949947;28;45478;-62
2022/05/16 11:15:08;;;;;;;1.98;1.60;;;27.40;44.60;;;;;;4937117;28;45261;-63
2022/05/16 11:18:01;;;;;;;3.33;1.70;;;27.40;44.70;;;;;;4931790;28;44925;-64
2022/05/16 11:20:36;;;;;;;2.75;1.95;;;27.50;44.80;;;;;;4950872;28;46061;-64
2022/05/16 11:23:39;;;;;;;3.40;1.67;;;27.50;44.90;;;;;;4930647;28;45378;-64
2022/05/16 11:26:17;;;;;;;3.38;1.63;;;27.50;44.90;;;;;;4897703;28;45201;-63
2022/05/16 11:29:17;;;;;;;3.33;1.60;;;27.50;44.90;;;;;;4916781;28;45357;-63
2022/05/16 11:31:58;;;;;;;2.92;1.58;;;27.50;44.90;;;;;;4953357;28;45286;-63
2022/05/16 11:34:40;;;;;;;1.98;1.58;;;27.50;44.90;;;;;;4934988;28;44762;-63
2022/05/16 11:37:25;;;;;;;3.55;1.38;;;27.50;44.90;;;;;;4953858;28;45583;-65
2022/05/16 11:39:59;;;;;;;2.60;1.67;;;27.50;44.90;;;;;;4936110;28;45324;-63
2022/05/16 11:43:21;;;;;;;2.53;1.70;;;27.50;44.90;;;;;;4931601;28;45487;-64
2022/05/16 11:46:25;;;;;;;1.70;1.33;;;27.50;44.90;;;;;;4920475;28;45570;-65
2022/05/16 11:49:11;;;;;;;2.45;1.70;;;27.50;44.90;;;;;;4949534;28;44963;-64
2022/05/16 11:51:40;;;;;;;2.67;1.40;;;27.50;44.90;;;;;;4952807;28;45448;-63
2022/05/16 11:54:06;;;;;;;2.33;1.38;;;27.60;44.90;;;;;;4953100;28;45244;-63
2022/05/16 12:02:28;;;;;;;3.45;1.70;;;27.60;44.90;;;;;;4953771;28;45216;-61
2022/05/16 12:05:02;;;;;;;1.73;1.58;;;27.60;44.90;;;;;;4954897;28;45118;-63
2022/05/16 12:07:34;;;;;;;2.53;1.75;;;27.60;44.90;;;;;;4946699;28;45263;-61
2022/05/16 12:10:01;;;;;;;3.92;1.50;;;27.70;45.00;;;;;;4939076;28;45242;-61
2022/05/16 12:12:44;;;;;;;2.20;1.60;;;27.60;44.90;;;;;;4935160;28;45770;-61
2022/05/16 12:15:15;;;;;;;2.50;1.60;;;27.70;45.00;;;;;;4916805;28;47080;-61
2022/05/16 12:17:53;;;;;;;3.05;1.75;;;27.60;44.90;;;;;;4952690;28;45528;-60
2022/05/16 12:20:38;;;;;;;4.57;1.80;;;27.70;45.00;;;;;;4952405;28;45329;-59
2022/05/16 12:23:05;;;;;;;1.83;1.35;;;27.70;45.00;;;;;;4953842;28;45191;-63
2022/05/16 12:25:33;;;;;;;2.83;1.67;;;27.70;45.00;;;;;;4952793;28;45479;-63
2022/05/16 12:28:17;;;;;;;3.40;2.15;;;27.70;45.00;;;;;;4951768;28;45301;-63
2022/05/16 12:30:52;;;;;;;1.83;1.65;;;27.80;45.00;;;;;;4952929;28;45490;-63
2022/05/16 12:33:40;;;;;;;4.70;1.80;;;27.80;45.00;;;;;;4934537;28;45289;-61
2022/05/16 12:36:13;;;;;;;1.98;1.60;;;27.80;45.00;;;;;;4947228;28;45384;-63
2022/05/16 12:38:38;;;;;;;;;;;27.80;45.00;;;;;;4935309;28;45305;-60
2022/05/16 12:41:38;;;;;;;2.47;1.63;;;27.80;45.00;;;;;;4937577;28;45520;-60
2022/05/16 12:44:23;;;;;;;2.45;1.70;;;27.80;45.00;;;;;;4932017;28;45554;-62
2022/05/16 12:46:59;;;;;;;2.10;1.90;;;27.80;45.00;;;;;;4948547;28;46158;-61
2022/05/16 12:50:02;;;;;;;2.20;2.00;;;27.80;45.00;;;;;;4951725;28;44904;-61
2022/05/16 12:52:59;;;;;;;3.78;1.52;;;27.90;45.00;;;;;;4950820;28;45586;-61
2022/05/16 12:55:47;;;;;;;2.90;1.92;;;27.90;45.00;;;;;;4954887;28;45503;-59
2022/05/16 12:58:46;;;;;;;3.80;2.00;;;27.90;45.10;;;;;;4952242;28;45148;-61
2022/05/16 13:01:17;;;;;;;3.25;2.05;;;27.90;45.10;;;;;;4958974;28;45458;-62
2022/05/16 13:03:46;;;;;;;4.07;2.13;;;27.90;45.10;;;;;;4957613;28;45471;-64
2022/05/16 13:06:36;;;;;;;2.17;1.70;;;27.90;45.10;;;;;;4959085;28;45102;-62
2022/05/16 13:09:07;;;;;;;2.75;1.58;;;27.90;45.20;;;;;;4951389;28;46087;-63
2022/05/16 13:11:50;;;;;;;2.65;1.85;;;27.90;45.10;;;;;;4916320;28;45485;-62
2022/05/16 13:14:48;;;;;;;2.97;1.70;;;28.00;45.20;;;;;;4941521;28;44797;-62
2022/05/16 13:17:44;;;;;;;2.25;1.60;;;27.90;45.10;;;;;;4933201;28;45651;-61
2022/05/16 13:20:12;;;;;;;2.03;1.63;;;27.90;45.20;;;;;;4938144;28;46032;-62
2022/05/16 13:22:40;;;;;;;2.95;1.67;;;27.90;45.20;;;;;;4953877;28;45281;-62
2022/05/16 13:25:07;;;;;;;3.25;1.80;;;27.90;45.20;;;;;;4953126;28;45741;-64
2022/05/16 13:30:19;;;;;;;1.92;1.73;;;27.90;45.20;;;;;;4951836;28;45637;-62
2022/05/16 13:32:44;;;;;;;3.30;1.60;;;27.90;45.30;;;;;;4923746;28;45756;-63
2022/05/16 13:35:12;;;;;;;4.20;2.25;;;27.90;45.20;;;;;;4955686;28;45430;-63
2022/05/16 13:37:42;;;;;;;2.72;1.52;;;28.00;45.30;;;;;;4941628;28;45672;-62
2022/05/16 13:40:13;;;;;;;5.07;1.77;;;27.90;45.30;;;;;;4957473;28;45974;-63
2022/05/16 13:42:41;;;;;;;3.00;1.98;;;27.90;45.30;;;;;;4943617;28;45283;-63
2022/05/16 13:45:08;;;;;;;2.35;2.10;;;27.90;45.30;;;;;;4958863;28;45471;-65
2022/05/16 13:47:38;;;;;;;3.92;2.05;;;28.00;45.40;;;;;;4956390;28;45265;-62
2022/05/16 13:50:04;;;;;;;2.22;1.70;;;28.00;45.50;;;;;;4937112;28;46594;-63
2022/05/16 13:52:37;;;;;;;1.85;1.60;;;28.00;45.50;;;;;;4938284;28;45030;-62
2022/05/16 13:55:05;;;;;;;6.00;2.15;;;28.00;45.60;;;;;;4955511;28;45208;-63
2022/05/16 13:57:31;;;;;;;9.73;2.53;;;28.00;45.70;;;;;;4937124;28;45233;-64
2022/05/16 14:00:21;;;;;;;5.63;2.00;;;28.00;46.00;;;;;;4956235;28;46077;-64
2022/05/16 14:02:53;;;;;;;2.60;1.88;;;28.00;46.80;;;;;;4947748;28;45595;-63
2022/05/16 14:05:35;;;;;;;4.93;2.30;;;28.00;46.70;;;;;;4936957;28;44788;-63
2022/05/16 14:08:01;;;;;;;4.75;1.85;;;27.90;46.90;;;;;;4941799;28;45376;-61
2022/05/16 14:10:28;;;;;;;4.00;1.90;;;27.90;46.90;;;;;;4931663;28;46699;-61
2022/05/16 14:12:58;;;;;;;5.93;2.33;;;27.90;47.00;;;;;;4950283;28;45623;-63
2022/05/16 14:15:34;;;;;;;5.47;1.90;;;27.80;47.20;;;;;;4938070;28;45229;-60
2022/05/16 14:18:16;;;;;;;4.45;1.98;;;27.80;47.30;;;;;;4937924;28;45443;-62
2022/05/16 14:20:47;;;;;;;6.93;2.40;;;27.80;47.30;;;;;;4950125;28;46788;-61
2022/05/16 14:23:17;;;;;;;5.57;2.17;;;27.80;47.50;;;;;;4953583;28;45487;-63
2022/05/16 14:25:43;;;;;;;3.35;2.10;;;27.80;47.40;;;;;;4935302;28;45016;-62
2022/05/16 14:28:32;;;;;;;3.58;2.20;;;27.70;47.40;;;;;;4944118;28;45404;-62
2022/05/16 14:31:04;;;;;;;3.63;2.05;;;27.70;47.80;;;;;;4938041;28;46086;-58
2022/05/16 14:33:31;;;;;;;6.80;1.70;;;27.60;47.50;;;;;;4952405;28;44963;-61
2022/05/16 14:36:07;;;;;;;6.57;2.10;;;27.60;47.60;;;;;;4956946;28;45619;-61
2022/05/16 14:38:49;;;;;;;5.43;2.15;;;27.60;47.70;;;;;;4925957;28;45408;-61
2022/05/16 14:41:25;;;;;;;6.07;2.50;;;27.50;48.00;;;;;;4932842;28;45504;-62
2022/05/16 14:44:02;;;;;;;3.65;1.88;;;27.50;47.90;;;;;;4954242;28;45307;-62
2022/05/16 14:46:49;;;;;;;2.55;2.00;;;27.50;48.00;;;;;;4931900;28;45563;-63
2022/05/16 14:49:16;;;;;;;4.65;2.15;;;27.50;48.00;;;;;;4949034;28;45671;-62
2022/05/16 14:51:43;;;;;;;4.53;1.75;;;27.40;47.70;;;;;;4952973;28;45560;-63
2022/05/16 14:54:39;;;;;;;3.70;2.03;;;27.40;47.80;;;;;;4912449;28;45519;-63
2022/05/16 14:57:05;;;;;;;2.63;1.75;;;27.40;48.20;;;;;;4943818;28;45462;-65
2022/05/16 14:59:31;;;;;;;4.93;1.90;;;27.40;47.90;;;;;;4930030;28;45528;-63
2022/05/16 15:04:41;;;;;;;4.47;1.60;;;27.30;48.00;;;;;;4942970;28;45310;-64
2022/05/16 15:07:07;;;;;;;4.93;1.80;;;27.30;48.00;;;;;;4928632;28;45047;-66
2022/05/16 15:09:33;;;;;;;3.00;1.65;;;27.30;48.00;;;;;;4912703;28;45127;-66
2022/05/16 15:12:01;;;;;;;4.30;2.20;;;27.30;48.00;;;;;;4948408;28;46278;-64
2022/05/16 15:14:27;;;;;;;8.52;2.08;;;27.30;48.00;;;;;;4933179;28;45335;-62
2022/05/16 15:16:53;;;;;;;4.22;1.90;;;27.30;48.00;;;;;;4929994;28;45166;-64
2022/05/16 15:19:19;;;;;;;4.75;1.90;;;27.30;48.00;;;;;;4931611;28;45819;-62
2022/05/16 15:21:46;;;;;;;4.75;1.80;;;27.30;48.00;;;;;;4932382;28;45682;-64
2022/05/16 15:24:25;;;;;;;2.22;1.80;;;27.30;48.10;;;;;;4914979;28;45455;-63
2022/05/16 15:26:50;;;;;;;4.10;2.08;;;27.30;48.00;;;;;;4925844;28;45755;-66
2022/05/16 15:29:16;;;;;;;7.95;1.95;;;27.30;48.00;;;;;;4947623;28;46870;-64
2022/05/16 15:31:42;;;;;;;3.08;1.90;;;27.30;48.00;;;;;;4930189;28;45193;-66
2022/05/16 15:34:07;;;;;;;2.45;1.70;;;27.30;48.00;;;;;;4929101;28;45343;-66
2022/05/16 15:36:33;;;;;;;3.92;1.67;;;27.30;47.90;;;;;;4948191;28;44843;-65
2022/05/16 15:38:59;;;;;;;2.88;1.63;;;27.30;47.90;;;;;;4896766;28;45492;-65
2022/05/16 15:41:25;;;;;;;5.78;2.00;;;27.30;47.90;;;;;;4945831;28;46267;-64
2022/05/16 15:43:50;;;;;;;4.90;1.95;;;27.30;47.90;;;;;;4928053;28;45482;-65
2022/05/16 15:46:16;;;;;;;3.53;2.13;;;27.30;47.90;;;;;;4955128;23;45426;-66
2022/05/16 15:48:41;;;;;;;2.72;2.03;;;27.30;47.90;;;;;;4907778;28;45598;-63
2022/05/16 15:51:11;;;;;;;2.55;1.50;;;27.30;47.80;;;;;;4918650;28;45952;-67
2022/05/16 15:53:37;;;;;;;5.70;2.10;;;27.30;47.90;;;;;;4896542;28;44801;-62
2022/05/16 15:56:03;;;;;;;4.25;1.95;;;27.30;47.90;;;;;;4894866;28;45480;-65
2022/05/16 15:58:29;;;;;;;3.72;1.80;;;27.30;47.80;;;;;;4912829;28;45303;-62
2022/05/16 16:00:54;;;;;;;4.45;1.90;;;27.30;47.80;;;;;;4903910;28;45098;-64
2022/05/16 16:08:57;;;;;;;3.60;1.75;;;27.30;47.80;;;;;;4908918;28;45096;-63
2022/05/16 16:11:23;;;;;;;2.28;1.70;;;27.30;47.70;;;;;;4924277;28;46290;-68
2022/05/16 16:13:50;;;;;;;3.20;1.88;;;27.30;47.70;;;;;;4926426;28;45694;-62
2022/05/16 16:16:16;;;;;;;3.17;1.83;;;27.30;47.70;;;;;;4893047;28;45432;-62
2022/05/16 16:18:42;;;;;;;2.97;1.60;;;27.30;47.80;;;;;;4908483;28;46282;-63
2022/05/16 16:21:08;;;;;;;3.53;1.70;;;27.30;47.70;;;;;;4907716;28;45273;-68
2022/05/16 16:23:33;;;;;;;3.95;1.77;;;27.30;47.70;;;;;;4910445;28;45087;-65
2022/05/16 16:25:59;;;;;;;2.95;1.75;;;27.30;47.70;;;;;;4906668;28;45653;-63
2022/05/16 16:28:25;;;;;;;3.10;1.80;;;27.30;47.70;;;;;;4905610;28;44677;-63
2022/05/16 16:30:52;;;;;;;2.88;1.75;;;27.30;47.70;;;;;;4910879;28;47186;-65
2022/05/16 16:33:19;;;;;;;4.53;2.00;;;27.30;47.70;;;;;;4908532;28;45176;-63
2022/05/16 16:35:45;;;;;;;3.67;1.85;;;27.30;47.60;;;;;;4909744;28;45457;-66
2022/05/16 16:38:12;;;;;;;2.60;1.67;;;27.30;47.60;;;;;;4897970;28;45597;-63
2022/05/16 16:40:40;;;;;;;6.90;1.98;;;27.30;47.60;;;;;;4909632;28;45070;-63
2022/05/16 16:43:06;;;;;;;3.95;1.70;;;27.30;47.60;;;;;;4913313;28;44774;-64
2022/05/16 16:45:31;;;;;;;3.60;1.50;;;27.30;47.60;;;;;;4897722;28;44786;-64